Wednesday, January 17, 2018, 9:55 AM EST
Back to Local

KHPN, White Plains Westchester

Location: Greenwich, NY, United States Lat: 41.067
Local Time: 9:55 AM EST (14:55 GMT) Lon: -73.7
Time Zone: US/Eastern Elev: 439 ft

Show me the last for .
Show Decoded

2018-01-17 08:56 METAR KHPN 171356Z 32007KT 1 1/2SM -SN BR BKN005 OVC014 00/M01 A3023 RMK AO2
                 SLP247 P0002 T00001006 =
2018-01-17 07:56 METAR KHPN 171256Z 31006KT 1SM R16/P6000FT -SN BR VV002 01/00 A3023 RMK AO2
                 RAE35SNB24 SLP245 P0002 T00060000 =
2018-01-17 06:56 METAR KHPN 171156Z 33005KT 1 1/2SM -RA BR VV003 01/01 A3022 RMK AO2 SLP243 P0003
                 60006 70006 T00110006 10017 20011 56007 =
2018-01-17 05:56 METAR KHPN 171056Z 06004KT 1SM R16/P6000FT -RA BR VV002 02/01 A3023 RMK AO2
                 DZE38RAB38 SLP244 P0000 T00170011 =
2018-01-17 04:56 METAR KHPN 170956Z 07005KT 2SM -DZ BR VV003 01/01 A3023 RMK AO2 RAE25DZB25
                 SLP244 P0000 T00110011 =
2018-01-17 03:56 METAR KHPN 170856Z VRB03KT 6SM -RA BR BKN005 OVC010 01/01 A3024 RMK AO2 SLP249
                 P0002 60003 T00110011 58016 =
2018-01-17 02:56 METAR KHPN 170756Z 08005KT 4SM -RA BR BKN005 OVC010 01/01 A3027 RMK AO2 SLP258
                 P0001 T00110006 =
2018-01-17 01:56 METAR KHPN 170656Z 07005KT 8SM -RA BKN006 OVC015 01/00 A3028 RMK AO2 RAB12
                 SLP261 P0000 T00110000 =
2018-01-17 00:56 METAR KHPN 170556Z 00000KT 10SM SCT009 BKN015 01/M01 A3029 RMK AO2 SLP266
                 T00111006 10017 21011 58022 =
2018-01-16 23:56 METAR KHPN 170456Z 09004KT 10SM FEW015 SCT024 BKN033 01/M01 A3031 RMK AO2 SLP273
                 T00111011 400111078 =
2018-01-16 22:56 METAR KHPN 170356Z 08004KT 10SM FEW015 BKN029 BKN035 01/M02 A3034 RMK AO2 SLP282
                 T00061022 =
2018-01-16 21:56 METAR KHPN 170256Z 08004KT 10SM BKN021 OVC029 00/M03 A3036 RMK AO2 SLP289
                 T00001028 58009 =
2018-01-16 20:56 METAR KHPN 170156Z 08004KT 10SM BKN027 OVC032 00/M04 A3037 RMK AO2 SLP293
                 T00001039 =
2018-01-16 19:56 METAR KHPN 170056Z AUTO 00000KT 10SM SCT024 OVC030 M01/M04 A3038 RMK AO2 SLP298
                 T10111044 =
2018-01-16 18:56 METAR KHPN 162356Z 00000KT 10SM SCT026 BKN070 M01/M04 A3038 RMK AO2 SLP300
                 T10111044 10000 21017 58004 =
2018-01-16 17:56 METAR KHPN 162256Z 00000KT 10SM BKN028 M01/M04 A3039 RMK AO2 SLP301 T10061044 =
2018-01-16 16:56 METAR KHPN 162156Z 10004KT 8SM BKN026 M01/M04 A3039 RMK AO2 SLP302 T10061044 =
2018-01-16 15:56 METAR KHPN 162056Z 08003KT 9SM BKN023 00/M05 A3039 RMK AO2 SLP303 T00001050
                 56007 =
2018-01-16 14:56 METAR KHPN 161956Z 13003KT 10SM BKN027 BKN070 00/M04 A3040 RMK AO2 SLP304
                 T00001044 =
2018-01-16 13:56 METAR KHPN 161856Z 09003KT 10SM SCT027 BKN070 M01/M05 A3041 RMK AO2 SLP308
                 T10061050 =
2018-01-16 12:56 METAR KHPN 161756Z 00000KT 10SM BKN070 M02/M06 A3041 RMK AO2 SLP310 60000
                 T10171056 11011 21056 58022 =
2018-01-16 11:56 METAR KHPN 161656Z 00000KT 10SM FEW029 BKN070 M02/M06 A3044 RMK AO2 SLP320
                 T10221061 =
2018-01-16 10:56 METAR KHPN 161556Z 12003KT 10SM FEW029 BKN080 M03/M07 A3047 RMK AO2 SLP330
                 T10281067 =
2018-01-16 09:56 METAR KHPN 161456Z 12006KT 10SM SCT029 BKN085 M04/M07 A3048 RMK AO2 SLP334 60000
                 T10391067 58002 =

Support USWX by starting your Amazon purchase here.